College Park Information

FAA: CGS - ICAO: KCGS

College Park (Airport) Location

State Maryland
County Prince Georges
City College Park
College Park (Airport) is 1 mile east of College Park, MD.
Latitude 38-58-50.1000N
Longitude 076-55-20.3000W
Elevation 48ft

College Park METARs

METAR KCGS 190759Z AUTO 00000KT 10SM SCT080 BKN090 OVC110 15/14 A2972 RMK AO1 T01450135
Altimeter 29.72"
Temperature 14.5°C (58.1°F)
Wind 0° at 0KT
Clouds scattered at 8,000ft broken at 9,000ft overcast at 11,000ft
Visibility 10.0mi
Time observed: 2022-05-19T07:59:00Z

College Park (Airport) Details

Status Operational
Activation April 1940
Ownership Public
Usage Public
Chart WASHINGTON
ATC on-site No
Beacon schedule sunset-sunrise
Beacon color clear green

College Park (Airport) Contacts

Owner MNCPPC
Owner address 6611 KENILWORTH AVENUE, RIVERDALE, MD 20737
Owner phone 301-699-2255
Manager FREDERICK T. LOHR
Manager address 9860 BREEZECROFT LN., CHESTERTOWN, MD 21620
Manager phone 410-778-1226

College Park Radio Frequencies

College Park (Airport) Radio Frequencies

UNICOM 122.975
Common traffic advisory frequency (CTAF) 122.975